sensor_id;sensor_type;location;lat;lon;timestamp;temperature;humidity
22633;DHT22;11483;55.828;37.488;2023-07-20T00:01:28;14.50;99.90
22633;DHT22;11483;55.828;37.488;2023-07-20T00:03:54;14.50;99.90
22633;DHT22;11483;55.828;37.488;2023-07-20T00:06:24;14.50;99.90
22633;DHT22;11483;55.828;37.488;2023-07-20T00:08:55;14.40;99.90
22633;DHT22;11483;55.828;37.488;2023-07-20T00:11:27;14.40;99.90
22633;DHT22;11483;55.828;37.488;2023-07-20T00:13:53;14.40;99.90
22633;DHT22;11483;55.828;37.488;2023-07-20T00:16:19;14.40;99.90
22633;DHT22;11483;55.828;37.488;2023-07-20T00:18:45;14.40;99.90
22633;DHT22;11483;55.828;37.488;2023-07-20T00:21:11;14.40;99.90
22633;DHT22;11483;55.828;37.488;2023-07-20T00:23:38;14.40;99.90
22633;DHT22;11483;55.828;37.488;2023-07-20T00:26:03;14.40;99.90
22633;DHT22;11483;55.828;37.488;2023-07-20T00:28:29;14.30;99.90
22633;DHT22;11483;55.828;37.488;2023-07-20T00:30:55;14.30;99.90
22633;DHT22;11483;55.828;37.488;2023-07-20T00:33:21;14.20;99.90
22633;DHT22;11483;55.828;37.488;2023-07-20T00:35:47;14.30;99.90
22633;DHT22;11483;55.828;37.488;2023-07-20T00:38:13;14.20;99.90
22633;DHT22;11483;55.828;37.488;2023-07-20T00:40:40;14.20;99.90
22633;DHT22;11483;55.828;37.488;2023-07-20T00:43:06;14.20;99.90
22633;DHT22;11483;55.828;37.488;2023-07-20T00:45:34;14.20;99.90
22633;DHT22;11483;55.828;37.488;2023-07-20T00:48:01;14.20;99.90
22633;DHT22;11483;55.828;37.488;2023-07-20T00:50:28;14.10;99.90
22633;DHT22;11483;55.828;37.488;2023-07-20T00:52:57;14.20;99.90
22633;DHT22;11483;55.828;37.488;2023-07-20T00:55:24;14.10;99.90
22633;DHT22;11483;55.828;37.488;2023-07-20T00:57:51;14.10;99.90
22633;DHT22;11483;55.828;37.488;2023-07-20T01:00:17;14.10;99.90
22633;DHT22;11483;55.828;37.488;2023-07-20T01:02:43;14.10;99.90
22633;DHT22;11483;55.828;37.488;2023-07-20T01:05:09;14.10;99.90
22633;DHT22;11483;55.828;37.488;2023-07-20T01:08:17;14.10;99.90
22633;DHT22;11483;55.828;37.488;2023-07-20T01:14:01;14.10;99.90
22633;DHT22;11483;55.828;37.488;2023-07-20T01:16:27;14.10;99.90
22633;DHT22;11483;55.828;37.488;2023-07-20T01:18:53;14.00;99.90
22633;DHT22;11483;55.828;37.488;2023-07-20T01:21:30;14.00;99.90
22633;DHT22;11483;55.828;37.488;2023-07-20T01:26:49;14.00;99.90
22633;DHT22;11483;55.828;37.488;2023-07-20T01:32:06;14.00;99.90
22633;DHT22;11483;55.828;37.488;2023-07-20T01:34:34;14.00;99.90
22633;DHT22;11483;55.828;37.488;2023-07-20T01:37:02;14.10;99.90
22633;DHT22;11483;55.828;37.488;2023-07-20T01:39:29;14.10;99.90
22633;DHT22;11483;55.828;37.488;2023-07-20T01:41:56;14.10;99.90
22633;DHT22;11483;55.828;37.488;2023-07-20T01:44:22;14.10;99.90
22633;DHT22;11483;55.828;37.488;2023-07-20T01:46:48;14.10;99.90
22633;DHT22;11483;55.828;37.488;2023-07-20T01:49:13;14.10;99.90
22633;DHT22;11483;55.828;37.488;2023-07-20T01:51:39;14.10;99.90
22633;DHT22;11483;55.828;37.488;2023-07-20T01:54:06;14.20;99.90
22633;DHT22;11483;55.828;37.488;2023-07-20T01:56:31;14.20;99.90
22633;DHT22;11483;55.828;37.488;2023-07-20T01:58:57;14.20;99.90
22633;DHT22;11483;55.828;37.488;2023-07-20T02:01:23;14.20;99.90
22633;DHT22;11483;55.828;37.488;2023-07-20T02:03:49;14.20;99.90
22633;DHT22;11483;55.828;37.488;2023-07-20T02:06:15;14.20;99.90
22633;DHT22;11483;55.828;37.488;2023-07-20T02:08:41;14.20;99.90
22633;DHT22;11483;55.828;37.488;2023-07-20T02:11:07;14.20;99.90
22633;DHT22;11483;55.828;37.488;2023-07-20T02:13:32;14.20;99.90
22633;DHT22;11483;55.828;37.488;2023-07-20T02:15:58;14.20;99.90
22633;DHT22;11483;55.828;37.488;2023-07-20T02:18:24;14.20;99.90
22633;DHT22;11483;55.828;37.488;2023-07-20T02:20:53;14.20;99.90
22633;DHT22;11483;55.828;37.488;2023-07-20T02:23:19;14.20;99.90
22633;DHT22;11483;55.828;37.488;2023-07-20T02:25:44;14.20;99.90
22633;DHT22;11483;55.828;37.488;2023-07-20T02:28:13;14.20;99.90
22633;DHT22;11483;55.828;37.488;2023-07-20T02:30:39;14.20;99.90
22633;DHT22;11483;55.828;37.488;2023-07-20T02:33:06;14.20;99.90
22633;DHT22;11483;55.828;37.488;2023-07-20T02:35:32;14.20;99.90
22633;DHT22;11483;55.828;37.488;2023-07-20T02:37:58;14.20;99.90
22633;DHT22;11483;55.828;37.488;2023-07-20T02:40:24;14.20;99.90
22633;DHT22;11483;55.828;37.488;2023-07-20T02:42:50;14.20;99.90
22633;DHT22;11483;55.828;37.488;2023-07-20T02:45:16;14.30;99.90
22633;DHT22;11483;55.828;37.488;2023-07-20T02:47:42;14.30;99.90
22633;DHT22;11483;55.828;37.488;2023-07-20T02:50:08;14.30;99.90
22633;DHT22;11483;55.828;37.488;2023-07-20T02:52:34;14.40;99.90
22633;DHT22;11483;55.828;37.488;2023-07-20T02:55:00;14.40;99.90
22633;DHT22;11483;55.828;37.488;2023-07-20T02:57:26;14.40;99.90
22633;DHT22;11483;55.828;37.488;2023-07-20T02:59:52;14.40;99.90
22633;DHT22;11483;55.828;37.488;2023-07-20T03:02:19;14.40;99.90
22633;DHT22;11483;55.828;37.488;2023-07-20T03:04:44;14.40;99.90
22633;DHT22;11483;55.828;37.488;2023-07-20T03:07:10;14.40;99.90
22633;DHT22;11483;55.828;37.488;2023-07-20T03:09:36;14.50;99.90
22633;DHT22;11483;55.828;37.488;2023-07-20T03:12:02;14.50;99.90
22633;DHT22;11483;55.828;37.488;2023-07-20T03:14:30;14.50;99.90
22633;DHT22;11483;55.828;37.488;2023-07-20T03:16:55;14.50;99.90
22633;DHT22;11483;55.828;37.488;2023-07-20T03:19:21;14.60;99.90
22633;DHT22;11483;55.828;37.488;2023-07-20T03:21:47;14.60;99.90
22633;DHT22;11483;55.828;37.488;2023-07-20T03:24:13;14.60;99.90
22633;DHT22;11483;55.828;37.488;2023-07-20T03:26:39;14.70;99.90
22633;DHT22;11483;55.828;37.488;2023-07-20T03:29:05;14.70;99.90
22633;DHT22;11483;55.828;37.488;2023-07-20T03:31:32;14.80;99.90
22633;DHT22;11483;55.828;37.488;2023-07-20T03:33:58;14.80;99.90
22633;DHT22;11483;55.828;37.488;2023-07-20T03:36:24;14.90;99.90
22633;DHT22;11483;55.828;37.488;2023-07-20T03:38:49;15.00;99.90
22633;DHT22;11483;55.828;37.488;2023-07-20T03:41:15;15.10;99.90
22633;DHT22;11483;55.828;37.488;2023-07-20T03:43:42;15.20;99.90
22633;DHT22;11483;55.828;37.488;2023-07-20T03:46:07;15.30;99.90
22633;DHT22;11483;55.828;37.488;2023-07-20T03:48:34;15.40;99.90
22633;DHT22;11483;55.828;37.488;2023-07-20T03:51:00;15.60;99.90
22633;DHT22;11483;55.828;37.488;2023-07-20T03:53:26;15.80;99.90
22633;DHT22;11483;55.828;37.488;2023-07-20T03:55:53;16.00;99.90
22633;DHT22;11483;55.828;37.488;2023-07-20T03:58:19;16.10;99.90
22633;DHT22;11483;55.828;37.488;2023-07-20T04:00:46;16.10;99.90
22633;DHT22;11483;55.828;37.488;2023-07-20T04:03:13;16.20;99.90
22633;DHT22;11483;55.828;37.488;2023-07-20T04:05:39;16.30;99.90
22633;DHT22;11483;55.828;37.488;2023-07-20T04:08:05;16.30;99.90
22633;DHT22;11483;55.828;37.488;2023-07-20T04:10:31;16.40;99.90
22633;DHT22;11483;55.828;37.488;2023-07-20T04:12:57;16.50;99.90
22633;DHT22;11483;55.828;37.488;2023-07-20T04:15:23;16.60;99.90
22633;DHT22;11483;55.828;37.488;2023-07-20T04:17:49;16.70;99.90
22633;DHT22;11483;55.828;37.488;2023-07-20T04:20:14;16.80;99.90
22633;DHT22;11483;55.828;37.488;2023-07-20T04:22:40;16.80;99.90
22633;DHT22;11483;55.828;37.488;2023-07-20T04:25:06;16.90;99.90
22633;DHT22;11483;55.828;37.488;2023-07-20T04:27:33;17.00;99.90
22633;DHT22;11483;55.828;37.488;2023-07-20T04:29:59;17.00;99.90
22633;DHT22;11483;55.828;37.488;2023-07-20T04:32:31;17.00;99.90
22633;DHT22;11483;55.828;37.488;2023-07-20T04:34:59;16.90;99.90
22633;DHT22;11483;55.828;37.488;2023-07-20T04:37:25;16.80;99.90
22633;DHT22;11483;55.828;37.488;2023-07-20T04:39:51;16.70;99.90
22633;DHT22;11483;55.828;37.488;2023-07-20T04:42:18;16.70;99.90
22633;DHT22;11483;55.828;37.488;2023-07-20T04:44:43;16.80;99.90
22633;DHT22;11483;55.828;37.488;2023-07-20T04:47:09;16.80;99.90
22633;DHT22;11483;55.828;37.488;2023-07-20T04:49:35;16.80;99.90
22633;DHT22;11483;55.828;37.488;2023-07-20T04:52:02;16.90;99.90
22633;DHT22;11483;55.828;37.488;2023-07-20T04:54:28;16.90;99.90
22633;DHT22;11483;55.828;37.488;2023-07-20T04:56:54;16.90;99.90
22633;DHT22;11483;55.828;37.488;2023-07-20T04:59:20;17.00;99.90
22633;DHT22;11483;55.828;37.488;2023-07-20T05:01:47;17.10;99.90
22633;DHT22;11483;55.828;37.488;2023-07-20T05:04:13;17.10;99.90
22633;DHT22;11483;55.828;37.488;2023-07-20T05:06:39;17.10;99.90
22633;DHT22;11483;55.828;37.488;2023-07-20T05:09:05;17.00;99.90
22633;DHT22;11483;55.828;37.488;2023-07-20T05:11:32;17.00;99.90
22633;DHT22;11483;55.828;37.488;2023-07-20T05:13:58;17.20;99.90
22633;DHT22;11483;55.828;37.488;2023-07-20T05:16:23;17.20;99.90
22633;DHT22;11483;55.828;37.488;2023-07-20T05:18:49;17.40;99.90
22633;DHT22;11483;55.828;37.488;2023-07-20T05:21:15;17.40;99.90
22633;DHT22;11483;55.828;37.488;2023-07-20T05:23:41;17.30;99.90
22633;DHT22;11483;55.828;37.488;2023-07-20T05:26:07;17.20;99.90
22633;DHT22;11483;55.828;37.488;2023-07-20T05:28:33;17.30;99.90
22633;DHT22;11483;55.828;37.488;2023-07-20T05:30:59;17.30;99.90
22633;DHT22;11483;55.828;37.488;2023-07-20T05:33:25;17.40;99.90
22633;DHT22;11483;55.828;37.488;2023-07-20T05:35:51;17.40;99.90
22633;DHT22;11483;55.828;37.488;2023-07-20T05:38:16;17.50;99.90
22633;DHT22;11483;55.828;37.488;2023-07-20T05:40:44;17.60;99.90
22633;DHT22;11483;55.828;37.488;2023-07-20T05:43:10;17.60;99.90
22633;DHT22;11483;55.828;37.488;2023-07-20T05:45:37;17.60;99.90
22633;DHT22;11483;55.828;37.488;2023-07-20T05:48:03;17.70;99.90
22633;DHT22;11483;55.828;37.488;2023-07-20T05:50:29;17.70;99.90
22633;DHT22;11483;55.828;37.488;2023-07-20T05:52:55;17.70;99.90
22633;DHT22;11483;55.828;37.488;2023-07-20T05:55:21;17.80;99.90
22633;DHT22;11483;55.828;37.488;2023-07-20T05:57:47;17.80;99.90
22633;DHT22;11483;55.828;37.488;2023-07-20T06:00:14;17.80;99.90
22633;DHT22;11483;55.828;37.488;2023-07-20T06:02:40;17.90;99.90
22633;DHT22;11483;55.828;37.488;2023-07-20T06:05:07;18.00;99.90
22633;DHT22;11483;55.828;37.488;2023-07-20T06:07:36;18.10;99.90
22633;DHT22;11483;55.828;37.488;2023-07-20T06:10:02;18.20;99.90
22633;DHT22;11483;55.828;37.488;2023-07-20T06:12:28;18.20;99.90
22633;DHT22;11483;55.828;37.488;2023-07-20T06:14:54;18.20;99.90
22633;DHT22;11483;55.828;37.488;2023-07-20T06:17:19;18.30;99.90
22633;DHT22;11483;55.828;37.488;2023-07-20T06:19:46;18.30;99.90
22633;DHT22;11483;55.828;37.488;2023-07-20T06:22:12;18.40;99.90
22633;DHT22;11483;55.828;37.488;2023-07-20T06:24:38;18.30;99.90
22633;DHT22;11483;55.828;37.488;2023-07-20T06:27:04;18.30;99.90
22633;DHT22;11483;55.828;37.488;2023-07-20T06:29:34;18.30;99.90
22633;DHT22;11483;55.828;37.488;2023-07-20T06:32:00;18.40;99.90
22633;DHT22;11483;55.828;37.488;2023-07-20T06:34:26;18.50;99.90
22633;DHT22;11483;55.828;37.488;2023-07-20T06:36:52;18.70;99.90
22633;DHT22;11483;55.828;37.488;2023-07-20T06:39:18;18.90;99.90
22633;DHT22;11483;55.828;37.488;2023-07-20T06:41:43;19.10;99.90
22633;DHT22;11483;55.828;37.488;2023-07-20T06:44:09;19.20;99.90
22633;DHT22;11483;55.828;37.488;2023-07-20T06:46:35;19.20;99.90
22633;DHT22;11483;55.828;37.488;2023-07-20T06:49:01;19.20;99.90
22633;DHT22;11483;55.828;37.488;2023-07-20T06:51:27;19.20;99.90
22633;DHT22;11483;55.828;37.488;2023-07-20T06:53:56;19.30;99.90
22633;DHT22;11483;55.828;37.488;2023-07-20T06:56:22;19.40;99.90
22633;DHT22;11483;55.828;37.488;2023-07-20T06:58:48;19.50;99.90
22633;DHT22;11483;55.828;37.488;2023-07-20T07:01:15;19.50;99.90
22633;DHT22;11483;55.828;37.488;2023-07-20T07:03:40;19.40;99.90
22633;DHT22;11483;55.828;37.488;2023-07-20T07:06:06;19.30;99.90
22633;DHT22;11483;55.828;37.488;2023-07-20T07:08:32;19.40;99.90
22633;DHT22;11483;55.828;37.488;2023-07-20T07:10:58;19.50;99.90
22633;DHT22;11483;55.828;37.488;2023-07-20T07:13:24;19.70;99.90
22633;DHT22;11483;55.828;37.488;2023-07-20T07:15:50;19.90;99.90
22633;DHT22;11483;55.828;37.488;2023-07-20T07:18:16;20.10;99.90
22633;DHT22;11483;55.828;37.488;2023-07-20T07:20:51;20.30;99.90
22633;DHT22;11483;55.828;37.488;2023-07-20T07:23:17;20.20;99.90
22633;DHT22;11483;55.828;37.488;2023-07-20T07:25:44;20.30;99.90
22633;DHT22;11483;55.828;37.488;2023-07-20T07:28:09;20.50;99.90
22633;DHT22;11483;55.828;37.488;2023-07-20T07:30:36;20.70;99.90
22633;DHT22;11483;55.828;37.488;2023-07-20T07:33:02;20.70;99.90
22633;DHT22;11483;55.828;37.488;2023-07-20T07:35:27;20.70;99.90
22633;DHT22;11483;55.828;37.488;2023-07-20T07:37:53;20.90;99.90
22633;DHT22;11483;55.828;37.488;2023-07-20T07:40:19;20.80;99.90
22633;DHT22;11483;55.828;37.488;2023-07-20T07:42:45;21.00;99.90
22633;DHT22;11483;55.828;37.488;2023-07-20T07:45:11;21.10;99.90
22633;DHT22;11483;55.828;37.488;2023-07-20T07:47:37;21.30;99.90
22633;DHT22;11483;55.828;37.488;2023-07-20T07:50:03;21.20;99.90
22633;DHT22;11483;55.828;37.488;2023-07-20T07:52:29;21.20;99.90
22633;DHT22;11483;55.828;37.488;2023-07-20T07:54:55;21.20;99.90
22633;DHT22;11483;55.828;37.488;2023-07-20T07:57:20;21.00;99.90
22633;DHT22;11483;55.828;37.488;2023-07-20T07:59:46;21.00;99.90
22633;DHT22;11483;55.828;37.488;2023-07-20T08:02:12;21.10;99.90
22633;DHT22;11483;55.828;37.488;2023-07-20T08:04:38;21.10;99.90
22633;DHT22;11483;55.828;37.488;2023-07-20T08:07:05;21.30;99.90
22633;DHT22;11483;55.828;37.488;2023-07-20T08:09:31;21.40;99.90
22633;DHT22;11483;55.828;37.488;2023-07-20T08:11:56;21.30;99.90
22633;DHT22;11483;55.828;37.488;2023-07-20T08:14:22;21.30;99.90
22633;DHT22;11483;55.828;37.488;2023-07-20T08:16:48;21.40;99.90
22633;DHT22;11483;55.828;37.488;2023-07-20T08:19:14;21.30;99.90
22633;DHT22;11483;55.828;37.488;2023-07-20T08:21:40;21.20;99.90
22633;DHT22;11483;55.828;37.488;2023-07-20T08:24:06;21.30;99.90
22633;DHT22;11483;55.828;37.488;2023-07-20T08:26:32;21.70;99.90
22633;DHT22;11483;55.828;37.488;2023-07-20T08:28:58;21.90;99.90
22633;DHT22;11483;55.828;37.488;2023-07-20T08:31:24;22.00;99.90
22633;DHT22;11483;55.828;37.488;2023-07-20T08:33:50;22.00;99.90
22633;DHT22;11483;55.828;37.488;2023-07-20T08:36:16;21.90;99.90
22633;DHT22;11483;55.828;37.488;2023-07-20T08:38:42;22.00;99.90
22633;DHT22;11483;55.828;37.488;2023-07-20T08:41:09;22.30;99.90
22633;DHT22;11483;55.828;37.488;2023-07-20T08:43:36;22.50;99.90
22633;DHT22;11483;55.828;37.488;2023-07-20T08:46:03;22.60;99.90
22633;DHT22;11483;55.828;37.488;2023-07-20T08:48:30;22.50;99.90
22633;DHT22;11483;55.828;37.488;2023-07-20T08:50:58;22.30;99.90
22633;DHT22;11483;55.828;37.488;2023-07-20T08:53:25;22.10;99.90
22633;DHT22;11483;55.828;37.488;2023-07-20T08:55:52;21.90;99.90
22633;DHT22;11483;55.828;37.488;2023-07-20T08:58:20;21.70;99.90
22633;DHT22;11483;55.828;37.488;2023-07-20T09:00:46;21.40;99.90
22633;DHT22;11483;55.828;37.488;2023-07-20T09:03:16;21.40;99.90
22633;DHT22;11483;55.828;37.488;2023-07-20T09:05:42;21.60;99.90
22633;DHT22;11483;55.828;37.488;2023-07-20T09:08:09;23.10;99.90
22633;DHT22;11483;55.828;37.488;2023-07-20T09:10:35;23.90;99.90
22633;DHT22;11483;55.828;37.488;2023-07-20T09:13:01;24.10;99.90
22633;DHT22;11483;55.828;37.488;2023-07-20T09:15:29;23.60;99.90
22633;DHT22;11483;55.828;37.488;2023-07-20T09:17:55;22.50;99.90
22633;DHT22;11483;55.828;37.488;2023-07-20T09:20:21;21.80;99.90
22633;DHT22;11483;55.828;37.488;2023-07-20T09:22:47;21.50;99.90
22633;DHT22;11483;55.828;37.488;2023-07-20T09:25:18;21.20;99.90
22633;DHT22;11483;55.828;37.488;2023-07-20T09:27:47;21.30;99.90
22633;DHT22;11483;55.828;37.488;2023-07-20T09:30:15;22.00;99.90
22633;DHT22;11483;55.828;37.488;2023-07-20T09:32:43;22.70;99.90
22633;DHT22;11483;55.828;37.488;2023-07-20T09:35:16;22.50;99.90
22633;DHT22;11483;55.828;37.488;2023-07-20T09:37:47;22.20;99.90
22633;DHT22;11483;55.828;37.488;2023-07-20T09:40:17;21.80;99.90
22633;DHT22;11483;55.828;37.488;2023-07-20T09:42:44;21.30;99.90
22633;DHT22;11483;55.828;37.488;2023-07-20T09:45:11;21.20;99.90
22633;DHT22;11483;55.828;37.488;2023-07-20T09:47:38;21.30;99.90
22633;DHT22;11483;55.828;37.488;2023-07-20T09:50:05;21.10;99.90
22633;DHT22;11483;55.828;37.488;2023-07-20T09:52:38;20.80;99.90
22633;DHT22;11483;55.828;37.488;2023-07-20T09:55:08;20.20;99.90
22633;DHT22;11483;55.828;37.488;2023-07-20T09:57:35;19.90;99.90
22633;DHT22;11483;55.828;37.488;2023-07-20T10:00:04;20.00;99.90
22633;DHT22;11483;55.828;37.488;2023-07-20T10:02:34;21.80;99.90
22633;DHT22;11483;55.828;37.488;2023-07-20T10:05:03;24.10;99.90
22633;DHT22;11483;55.828;37.488;2023-07-20T10:07:30;26.70;99.90
22633;DHT22;11483;55.828;37.488;2023-07-20T10:09:59;28.50;99.90
22633;DHT22;11483;55.828;37.488;2023-07-20T10:12:25;30.40;99.90
22633;DHT22;11483;55.828;37.488;2023-07-20T10:15:05;29.70;94.90
22633;DHT22;11483;55.828;37.488;2023-07-20T10:17:43;28.60;94.10
22633;DHT22;11483;55.828;37.488;2023-07-20T10:20:16;29.20;93.00
22633;DHT22;11483;55.828;37.488;2023-07-20T10:22:48;28.90;91.30
22633;DHT22;11483;55.828;37.488;2023-07-20T10:25:16;27.20;92.70
22633;DHT22;11483;55.828;37.488;2023-07-20T10:27:45;25.80;94.40
22633;DHT22;11483;55.828;37.488;2023-07-20T10:30:11;24.90;97.20
22633;DHT22;11483;55.828;37.488;2023-07-20T10:32:40;24.30;97.60
22633;DHT22;11483;55.828;37.488;2023-07-20T10:35:13;23.80;99.90
22633;DHT22;11483;55.828;37.488;2023-07-20T10:37:55;22.90;99.90
22633;DHT22;11483;55.828;37.488;2023-07-20T10:43:09;23.00;99.90
22633;DHT22;11483;55.828;37.488;2023-07-20T10:45:52;23.20;99.90
22633;DHT22;11483;55.828;37.488;2023-07-20T10:48:21;24.60;99.90
22633;DHT22;11483;55.828;37.488;2023-07-20T10:51:19;25.80;99.90
22633;DHT22;11483;55.828;37.488;2023-07-20T10:53:47;27.50;97.50
22633;DHT22;11483;55.828;37.488;2023-07-20T10:56:15;29.80;95.30
22633;DHT22;11483;55.828;37.488;2023-07-20T10:58:44;31.40;90.90
22633;DHT22;11483;55.828;37.488;2023-07-20T11:01:14;32.20;87.30
22633;DHT22;11483;55.828;37.488;2023-07-20T11:03:40;31.20;83.70
22633;DHT22;11483;55.828;37.488;2023-07-20T11:06:30;29.90;84.50
22633;DHT22;11483;55.828;37.488;2023-07-20T11:09:11;29.10;87.60
22633;DHT22;11483;55.828;37.488;2023-07-20T11:11:38;28.50;88.90
22633;DHT22;11483;55.828;37.488;2023-07-20T11:19:28;25.80;93.90
22633;DHT22;11483;55.828;37.488;2023-07-20T11:21:55;24.60;94.00
22633;DHT22;11483;55.828;37.488;2023-07-20T11:24:21;23.60;94.80
22633;DHT22;11483;55.828;37.488;2023-07-20T11:26:52;22.90;96.40
22633;DHT22;11483;55.828;37.488;2023-07-20T11:29:20;22.50;98.00
22633;DHT22;11483;55.828;37.488;2023-07-20T11:31:47;22.30;98.70
22633;DHT22;11483;55.828;37.488;2023-07-20T11:34:20;22.20;99.10
22633;DHT22;11483;55.828;37.488;2023-07-20T11:36:49;22.00;99.90
22633;DHT22;11483;55.828;37.488;2023-07-20T11:39:19;21.80;99.90
22633;DHT22;11483;55.828;37.488;2023-07-20T11:41:48;21.70;99.90
22633;DHT22;11483;55.828;37.488;2023-07-20T11:44:22;21.70;99.90
22633;DHT22;11483;55.828;37.488;2023-07-20T11:47:10;21.90;99.90
22633;DHT22;11483;55.828;37.488;2023-07-20T11:49:41;22.40;99.90
22633;DHT22;11483;55.828;37.488;2023-07-20T11:52:14;21.90;99.90
22633;DHT22;11483;55.828;37.488;2023-07-20T11:54:41;21.40;99.90
22633;DHT22;11483;55.828;37.488;2023-07-20T11:57:15;21.90;99.90
22633;DHT22;11483;55.828;37.488;2023-07-20T11:59:55;23.60;99.90
22633;DHT22;11483;55.828;37.488;2023-07-20T12:02:27;25.10;99.90
22633;DHT22;11483;55.828;37.488;2023-07-20T12:04:57;25.70;99.90
22633;DHT22;11483;55.828;37.488;2023-07-20T12:07:27;25.50;97.50
22633;DHT22;11483;55.828;37.488;2023-07-20T12:10:15;25.20;98.40
22633;DHT22;11483;55.828;37.488;2023-07-20T12:12:43;24.60;97.80
22633;DHT22;11483;55.828;37.488;2023-07-20T12:17:52;23.80;99.90
22633;DHT22;11483;55.828;37.488;2023-07-20T12:20:36;23.50;99.90
22633;DHT22;11483;55.828;37.488;2023-07-20T12:23:09;23.50;99.90
22633;DHT22;11483;55.828;37.488;2023-07-20T12:25:44;24.50;99.90
22633;DHT22;11483;55.828;37.488;2023-07-20T12:28:16;26.20;99.60
22633;DHT22;11483;55.828;37.488;2023-07-20T12:30:43;27.90;97.10
22633;DHT22;11483;55.828;37.488;2023-07-20T12:33:10;28.70;93.90
22633;DHT22;11483;55.828;37.488;2023-07-20T12:35:37;29.60;93.10
22633;DHT22;11483;55.828;37.488;2023-07-20T12:38:03;30.10;90.40
22633;DHT22;11483;55.828;37.488;2023-07-20T12:40:30;28.60;90.60
22633;DHT22;11483;55.828;37.488;2023-07-20T12:42:57;28.10;90.20
22633;DHT22;11483;55.828;37.488;2023-07-20T12:45:24;27.80;90.10
22633;DHT22;11483;55.828;37.488;2023-07-20T12:47:49;27.50;89.20
22633;DHT22;11483;55.828;37.488;2023-07-20T12:50:15;26.80;91.10
22633;DHT22;11483;55.828;37.488;2023-07-20T12:52:41;25.90;92.80
22633;DHT22;11483;55.828;37.488;2023-07-20T12:55:08;25.50;93.40
22633;DHT22;11483;55.828;37.488;2023-07-20T12:57:35;25.30;94.30
22633;DHT22;11483;55.828;37.488;2023-07-20T13:00:03;25.40;94.50
22633;DHT22;11483;55.828;37.488;2023-07-20T13:02:31;25.60;94.80
22633;DHT22;11483;55.828;37.488;2023-07-20T13:04:58;26.90;94.00
22633;DHT22;11483;55.828;37.488;2023-07-20T13:07:34;28.10;92.10
22633;DHT22;11483;55.828;37.488;2023-07-20T13:10:00;28.20;91.90
22633;DHT22;11483;55.828;37.488;2023-07-20T13:12:31;28.50;90.60
22633;DHT22;11483;55.828;37.488;2023-07-20T13:14:57;28.20;91.30
22633;DHT22;11483;55.828;37.488;2023-07-20T13:17:29;27.70;91.70
22633;DHT22;11483;55.828;37.488;2023-07-20T13:19:55;27.80;91.20
22633;DHT22;11483;55.828;37.488;2023-07-20T13:22:21;28.00;91.10
22633;DHT22;11483;55.828;37.488;2023-07-20T13:24:48;27.80;90.90
22633;DHT22;11483;55.828;37.488;2023-07-20T13:27:16;28.00;91.30
22633;DHT22;11483;55.828;37.488;2023-07-20T13:29:42;28.10;90.60
22633;DHT22;11483;55.828;37.488;2023-07-20T13:32:09;27.20;91.60
22633;DHT22;11483;55.828;37.488;2023-07-20T13:34:35;26.10;93.50
22633;DHT22;11483;55.828;37.488;2023-07-20T13:37:02;24.80;95.90
22633;DHT22;11483;55.828;37.488;2023-07-20T13:39:28;23.70;97.20
22633;DHT22;11483;55.828;37.488;2023-07-20T13:41:54;23.00;98.70
22633;DHT22;11483;55.828;37.488;2023-07-20T13:44:20;22.60;99.90
22633;DHT22;11483;55.828;37.488;2023-07-20T13:46:47;22.50;99.90
22633;DHT22;11483;55.828;37.488;2023-07-20T13:49:13;22.50;99.90
22633;DHT22;11483;55.828;37.488;2023-07-20T13:51:40;22.40;99.90
22633;DHT22;11483;55.828;37.488;2023-07-20T13:54:06;22.40;99.90
22633;DHT22;11483;55.828;37.488;2023-07-20T13:56:32;22.50;99.90
22633;DHT22;11483;55.828;37.488;2023-07-20T13:58:58;23.20;99.90
22633;DHT22;11483;55.828;37.488;2023-07-20T14:01:24;24.50;99.50
22633;DHT22;11483;55.828;37.488;2023-07-20T14:03:53;25.60;97.40
22633;DHT22;11483;55.828;37.488;2023-07-20T14:06:19;26.00;95.60
22633;DHT22;11483;55.828;37.488;2023-07-20T14:08:45;26.30;95.30
22633;DHT22;11483;55.828;37.488;2023-07-20T14:11:18;26.10;94.50
22633;DHT22;11483;55.828;37.488;2023-07-20T14:13:44;25.90;94.60
22633;DHT22;11483;55.828;37.488;2023-07-20T14:16:10;25.90;94.80
22633;DHT22;11483;55.828;37.488;2023-07-20T14:18:36;26.40;94.50
22633;DHT22;11483;55.828;37.488;2023-07-20T14:21:02;26.80;94.30
22633;DHT22;11483;55.828;37.488;2023-07-20T14:23:30;27.10;93.80
22633;DHT22;11483;55.828;37.488;2023-07-20T14:25:56;26.50;93.40
22633;DHT22;11483;55.828;37.488;2023-07-20T14:28:22;25.60;94.50
22633;DHT22;11483;55.828;37.488;2023-07-20T14:30:48;24.80;95.50
22633;DHT22;11483;55.828;37.488;2023-07-20T14:33:14;24.10;96.00
22633;DHT22;11483;55.828;37.488;2023-07-20T14:35:39;23.40;97.90
22633;DHT22;11483;55.828;37.488;2023-07-20T14:38:05;23.10;99.80
22633;DHT22;11483;55.828;37.488;2023-07-20T14:40:31;22.90;99.50
22633;DHT22;11483;55.828;37.488;2023-07-20T14:42:56;23.00;99.90
22633;DHT22;11483;55.828;37.488;2023-07-20T14:45:22;23.00;99.90
22633;DHT22;11483;55.828;37.488;2023-07-20T14:47:48;23.00;99.90
22633;DHT22;11483;55.828;37.488;2023-07-20T14:50:19;23.40;99.60
22633;DHT22;11483;55.828;37.488;2023-07-20T14:52:45;23.60;99.30
22633;DHT22;11483;55.828;37.488;2023-07-20T14:55:12;24.00;99.30
22633;DHT22;11483;55.828;37.488;2023-07-20T14:57:37;25.20;98.20
22633;DHT22;11483;55.828;37.488;2023-07-20T15:00:04;26.10;96.10
22633;DHT22;11483;55.828;37.488;2023-07-20T15:02:40;26.40;94.70
22633;DHT22;11483;55.828;37.488;2023-07-20T15:05:10;26.50;93.10
22633;DHT22;11483;55.828;37.488;2023-07-20T15:07:36;26.80;92.50
22633;DHT22;11483;55.828;37.488;2023-07-20T15:10:03;26.90;91.50
22633;DHT22;11483;55.828;37.488;2023-07-20T15:12:30;27.00;91.10
22633;DHT22;11483;55.828;37.488;2023-07-20T15:15:07;27.00;90.10
22633;DHT22;11483;55.828;37.488;2023-07-20T15:17:34;27.00;89.40
22633;DHT22;11483;55.828;37.488;2023-07-20T15:20:05;27.10;90.00
22633;DHT22;11483;55.828;37.488;2023-07-20T15:22:32;27.20;89.60
22633;DHT22;11483;55.828;37.488;2023-07-20T15:24:59;27.20;89.40
22633;DHT22;11483;55.828;37.488;2023-07-20T15:27:26;27.40;88.90
22633;DHT22;11483;55.828;37.488;2023-07-20T15:29:52;28.00;88.90
22633;DHT22;11483;55.828;37.488;2023-07-20T15:32:18;28.00;86.00
22633;DHT22;11483;55.828;37.488;2023-07-20T15:34:45;27.70;85.40
22633;DHT22;11483;55.828;37.488;2023-07-20T15:37:12;27.10;82.60